sensor_id;sensor_type;location;lat;lon;timestamp;pressure;altitude;pressure_sealevel;temperature;humidity
49973;BME280;65693;49.798;10.968;2023-05-15T00:01:32;97741.16;;;14.58;53.86
49973;BME280;65693;49.798;10.968;2023-05-15T00:03:59;97726.97;;;14.57;53.78
49973;BME280;65693;49.798;10.968;2023-05-15T00:06:26;97734.13;;;14.57;53.80
49973;BME280;65693;49.798;10.968;2023-05-15T00:08:53;97722.63;;;14.56;53.81
49973;BME280;65693;49.798;10.968;2023-05-15T00:11:19;97725.16;;;14.58;53.68
49973;BME280;65693;49.798;10.968;2023-05-15T00:13:49;97726.13;;;14.57;53.75
49973;BME280;65693;49.798;10.968;2023-05-15T00:16:15;97729.78;;;14.56;53.83
49973;BME280;65693;49.798;10.968;2023-05-15T00:18:41;97731.47;;;14.57;53.96
49973;BME280;65693;49.798;10.968;2023-05-15T00:21:08;97730.75;;;14.55;53.71
49973;BME280;65693;49.798;10.968;2023-05-15T00:23:35;97735.09;;;14.56;53.65
49973;BME280;65693;49.798;10.968;2023-05-15T00:26:01;97730.75;;;14.55;53.84
49973;BME280;65693;49.798;10.968;2023-05-15T00:28:27;97729.06;;;14.54;53.93
49973;BME280;65693;49.798;10.968;2023-05-15T00:30:55;97725.53;;;14.53;53.81
49973;BME280;65693;49.798;10.968;2023-05-15T00:33:22;97726.13;;;14.57;53.77
49973;BME280;65693;49.798;10.968;2023-05-15T00:35:48;97729.91;;;14.54;53.89
49973;BME280;65693;49.798;10.968;2023-05-15T00:38:15;97733.31;;;14.56;53.78
49973;BME280;65693;49.798;10.968;2023-05-15T00:40:42;97726.41;;;14.54;53.83
49973;BME280;65693;49.798;10.968;2023-05-15T00:43:10;97729.78;;;14.56;53.90
49973;BME280;65693;49.798;10.968;2023-05-15T00:45:38;97721.78;;;14.56;53.72
49973;BME280;65693;49.798;10.968;2023-05-15T00:48:08;97714.06;;;14.53;53.67
49973;BME280;65693;49.798;10.968;2023-05-15T00:50:35;97710.53;;;14.52;53.79
49973;BME280;65693;49.798;10.968;2023-05-15T00:53:02;97723.16;;;14.50;53.89
49973;BME280;65693;49.798;10.968;2023-05-15T00:55:28;97716.00;;;14.50;53.85
49973;BME280;65693;49.798;10.968;2023-05-15T00:57:56;97719.66;;;14.49;53.91
49973;BME280;65693;49.798;10.968;2023-05-15T01:00:23;97714.44;;;14.48;53.97
49973;BME280;65693;49.798;10.968;2023-05-15T01:02:51;97723.16;;;14.50;53.84
49973;BME280;65693;49.798;10.968;2023-05-15T01:05:19;97722.31;;;14.49;54.00
49973;BME280;65693;49.798;10.968;2023-05-15T01:07:50;97717.69;;;14.51;53.97
49973;BME280;65693;49.798;10.968;2023-05-15T01:10:18;97723.16;;;14.50;53.85
49973;BME280;65693;49.798;10.968;2023-05-15T01:12:46;97712.63;;;14.48;53.86
49973;BME280;65693;49.798;10.968;2023-05-15T01:15:16;97714.44;;;14.48;53.90
49973;BME280;65693;49.798;10.968;2023-05-15T01:17:42;97712.63;;;14.48;53.97
49973;BME280;65693;49.798;10.968;2023-05-15T01:20:10;97709.00;;;14.49;53.85
49973;BME280;65693;49.798;10.968;2023-05-15T01:22:46;97711.78;;;14.48;54.01
49973;BME280;65693;49.798;10.968;2023-05-15T01:25:33;97702.09;;;14.47;53.94
49973;BME280;65693;49.798;10.968;2023-05-15T01:28:05;97706.56;;;14.46;53.98
49973;BME280;65693;49.798;10.968;2023-05-15T01:30:36;97705.47;;;14.49;53.90
49973;BME280;65693;49.798;10.968;2023-05-15T01:33:07;97706.56;;;14.46;53.90
49973;BME280;65693;49.798;10.968;2023-05-15T01:35:37;97702.22;;;14.45;53.72
49973;BME280;65693;49.798;10.968;2023-05-15T01:38:12;97704.88;;;14.45;53.96
49973;BME280;65693;49.798;10.968;2023-05-15T01:40:41;97698.72;;;14.45;54.03
49973;BME280;65693;49.798;10.968;2023-05-15T01:43:16;97705.03;;;14.44;54.01
49973;BME280;65693;49.798;10.968;2023-05-15T01:45:43;97704.06;;;14.45;54.01
49973;BME280;65693;49.798;10.968;2023-05-15T01:48:11;97702.38;;;14.44;54.01
49973;BME280;65693;49.798;10.968;2023-05-15T01:50:39;97707.56;;;14.45;53.96
49973;BME280;65693;49.798;10.968;2023-05-15T01:53:09;97710.50;;;14.42;53.71
49973;BME280;65693;49.798;10.968;2023-05-15T01:55:37;97711.34;;;14.43;54.05
49973;BME280;65693;49.798;10.968;2023-05-15T01:58:04;97707.00;;;14.42;53.98
49973;BME280;65693;49.798;10.968;2023-05-15T02:00:32;97705.88;;;14.44;53.85
49973;BME280;65693;49.798;10.968;2023-05-15T02:02:59;97703.47;;;14.41;53.98
49973;BME280;65693;49.798;10.968;2023-05-15T02:05:27;97699.97;;;14.41;53.97
49973;BME280;65693;49.798;10.968;2023-05-15T02:07:55;97692.00;;;14.41;53.99
49973;BME280;65693;49.798;10.968;2023-05-15T02:10:21;97693.91;;;14.39;53.98
49973;BME280;65693;49.798;10.968;2023-05-15T02:12:49;97692.22;;;14.37;54.24
49973;BME280;65693;49.798;10.968;2023-05-15T02:15:16;97688.75;;;14.37;54.07
49973;BME280;65693;49.798;10.968;2023-05-15T02:17:44;97675.41;;;14.37;54.10
49973;BME280;65693;49.798;10.968;2023-05-15T02:20:11;97687.47;;;14.41;54.04
49973;BME280;65693;49.798;10.968;2023-05-15T02:22:38;97685.09;;;14.38;54.08
49973;BME280;65693;49.798;10.968;2023-05-15T02:25:05;97684.97;;;14.40;53.85
49973;BME280;65693;49.798;10.968;2023-05-15T02:27:37;97688.59;;;14.39;53.99
49973;BME280;65693;49.798;10.968;2023-05-15T02:30:19;97681.72;;;14.36;53.88
49973;BME280;65693;49.798;10.968;2023-05-15T02:32:59;97680.03;;;14.35;54.12
49973;BME280;65693;49.798;10.968;2023-05-15T02:35:31;97680.47;;;14.40;53.93
49973;BME280;65693;49.798;10.968;2023-05-15T02:38:05;97671.88;;;14.36;53.99
49973;BME280;65693;49.798;10.968;2023-05-15T02:40:35;97680.03;;;14.35;54.02
49973;BME280;65693;49.798;10.968;2023-05-15T02:43:03;97674.44;;;14.38;53.97
49973;BME280;65693;49.798;10.968;2023-05-15T02:45:31;97666.72;;;14.35;54.16
49973;BME280;65693;49.798;10.968;2023-05-15T02:47:59;97668.66;;;14.33;54.00
49973;BME280;65693;49.798;10.968;2023-05-15T02:50:26;97664.75;;;14.37;53.98
49973;BME280;65693;49.798;10.968;2023-05-15T02:53:00;97664.03;;;14.35;53.92
49973;BME280;65693;49.798;10.968;2023-05-15T02:55:27;97664.16;;;14.33;54.03
49973;BME280;65693;49.798;10.968;2023-05-15T02:57:53;97661.66;;;14.32;54.07
49973;BME280;65693;49.798;10.968;2023-05-15T03:00:20;97658.13;;;14.31;54.21
49973;BME280;65693;49.798;10.968;2023-05-15T03:02:46;97659.94;;;14.31;54.22
49973;BME280;65693;49.798;10.968;2023-05-15T03:05:14;97669.66;;;14.32;53.92
49973;BME280;65693;49.798;10.968;2023-05-15T03:07:41;97655.59;;;14.30;54.07
49973;BME280;65693;49.798;10.968;2023-05-15T03:10:07;97656.56;;;14.29;53.94
49973;BME280;65693;49.798;10.968;2023-05-15T03:12:34;97650.41;;;14.28;54.06
49973;BME280;65693;49.798;10.968;2023-05-15T03:15:00;97659.25;;;14.29;54.11
49973;BME280;65693;49.798;10.968;2023-05-15T03:17:27;97662.06;;;14.27;54.11
49973;BME280;65693;49.798;10.968;2023-05-15T03:19:53;97660.22;;;14.28;54.00
49973;BME280;65693;49.798;10.968;2023-05-15T03:22:22;97654.88;;;14.28;54.08
49973;BME280;65693;49.798;10.968;2023-05-15T03:24:48;97651.50;;;14.26;54.08
49973;BME280;65693;49.798;10.968;2023-05-15T03:27:15;97656.84;;;14.26;54.16
49973;BME280;65693;49.798;10.968;2023-05-15T03:29:41;97656.03;;;14.25;54.02
49973;BME280;65693;49.798;10.968;2023-05-15T03:32:08;97660.38;;;14.26;53.94
49973;BME280;65693;49.798;10.968;2023-05-15T03:34:34;97660.66;;;14.23;54.14
49973;BME280;65693;49.798;10.968;2023-05-15T03:37:01;97664.25;;;14.22;53.93
49973;BME280;65693;49.798;10.968;2023-05-15T03:39:29;97659.66;;;14.24;53.96
49973;BME280;65693;49.798;10.968;2023-05-15T03:41:55;97657.81;;;14.25;54.03
49973;BME280;65693;49.798;10.968;2023-05-15T03:44:21;97647.44;;;14.21;54.00
49973;BME280;65693;49.798;10.968;2023-05-15T03:46:48;97651.91;;;14.21;53.91
49973;BME280;65693;49.798;10.968;2023-05-15T03:49:14;97652.06;;;14.19;53.96
49973;BME280;65693;49.798;10.968;2023-05-15T03:51:41;97652.06;;;14.19;54.15
49973;BME280;65693;49.798;10.968;2023-05-15T03:54:07;97643.38;;;14.17;54.24
49973;BME280;65693;49.798;10.968;2023-05-15T03:56:35;97647.72;;;14.18;54.06
49973;BME280;65693;49.798;10.968;2023-05-15T03:59:01;97645.88;;;14.19;54.04
49973;BME280;65693;49.798;10.968;2023-05-15T04:01:28;97648.44;;;14.20;54.00
49973;BME280;65693;49.798;10.968;2023-05-15T04:03:54;97645.06;;;14.18;54.00
49973;BME280;65693;49.798;10.968;2023-05-15T04:06:21;97642.50;;;14.17;54.03
49973;BME280;65693;49.798;10.968;2023-05-15T04:08:48;97641.69;;;14.16;54.09
49973;BME280;65693;49.798;10.968;2023-05-15T04:11:15;97647.84;;;14.17;54.14
49973;BME280;65693;49.798;10.968;2023-05-15T04:13:43;97642.78;;;14.14;54.06
49973;BME280;65693;49.798;10.968;2023-05-15T04:16:10;97648.69;;;14.17;54.02
49973;BME280;65693;49.798;10.968;2023-05-15T04:18:36;97649.69;;;14.16;54.09
49973;BME280;65693;49.798;10.968;2023-05-15T04:21:03;97656.00;;;14.15;54.12
49973;BME280;65693;49.798;10.968;2023-05-15T04:23:29;97647.13;;;14.15;54.13
49973;BME280;65693;49.798;10.968;2023-05-15T04:25:55;97653.31;;;14.15;54.11
49973;BME280;65693;49.798;10.968;2023-05-15T04:28:22;97657.09;;;14.13;54.20
49973;BME280;65693;49.798;10.968;2023-05-15T04:30:50;97654.28;;;14.14;54.10
49973;BME280;65693;49.798;10.968;2023-05-15T04:33:16;97647.13;;;14.15;54.27
49973;BME280;65693;49.798;10.968;2023-05-15T04:35:43;97645.56;;;14.12;54.14
49973;BME280;65693;49.798;10.968;2023-05-15T04:38:09;97656.00;;;14.15;54.08
49973;BME280;65693;49.798;10.968;2023-05-15T04:40:35;97659.34;;;14.17;54.04
49973;BME280;65693;49.798;10.968;2023-05-15T04:43:02;97650.91;;;14.12;54.12
49973;BME280;65693;49.798;10.968;2023-05-15T04:45:30;97653.72;;;14.11;54.17
49973;BME280;65693;49.798;10.968;2023-05-15T04:47:57;97649.94;;;14.13;54.18
49973;BME280;65693;49.798;10.968;2023-05-15T04:50:24;97648.94;;;14.14;54.17
49973;BME280;65693;49.798;10.968;2023-05-15T04:52:50;97655.25;;;14.13;54.14
49973;BME280;65693;49.798;10.968;2023-05-15T04:55:17;97652.59;;;14.13;54.14
49973;BME280;65693;49.798;10.968;2023-05-15T04:57:44;97652.75;;;14.12;54.21
49973;BME280;65693;49.798;10.968;2023-05-15T05:00:12;97654.28;;;14.14;54.04
49973;BME280;65693;49.798;10.968;2023-05-15T05:02:39;97655.25;;;14.13;54.29
49973;BME280;65693;49.798;10.968;2023-05-15T05:05:08;97650.91;;;14.12;54.20
49973;BME280;65693;49.798;10.968;2023-05-15T05:07:35;97655.13;;;14.15;54.20
49973;BME280;65693;49.798;10.968;2023-05-15T05:10:01;97657.78;;;14.15;54.79
49973;BME280;65693;49.798;10.968;2023-05-15T05:12:28;97655.41;;;14.12;54.82
49973;BME280;65693;49.798;10.968;2023-05-15T05:14:54;97655.00;;;14.16;54.92
49973;BME280;65693;49.798;10.968;2023-05-15T05:17:21;97660.06;;;14.19;55.17
49973;BME280;65693;49.798;10.968;2023-05-15T05:19:47;97655.72;;;14.18;55.90
49973;BME280;65693;49.798;10.968;2023-05-15T05:22:15;97661.31;;;14.15;55.94
49973;BME280;65693;49.798;10.968;2023-05-15T05:24:42;97653.44;;;14.14;55.72
49973;BME280;65693;49.798;10.968;2023-05-15T05:27:08;97649.94;;;14.13;55.61
49973;BME280;65693;49.798;10.968;2023-05-15T05:29:35;97654.56;;;14.11;55.77
49973;BME280;65693;49.798;10.968;2023-05-15T05:32:01;97656.22;;;14.12;55.51
49973;BME280;65693;49.798;10.968;2023-05-15T05:34:28;97660.72;;;14.12;55.30
49973;BME280;65693;49.798;10.968;2023-05-15T05:36:54;97659.59;;;14.14;55.28
49973;BME280;65693;49.798;10.968;2023-05-15T05:39:22;97655.13;;;14.15;55.51
49973;BME280;65693;49.798;10.968;2023-05-15T05:41:48;97643.63;;;14.14;55.22
49973;BME280;65693;49.798;10.968;2023-05-15T05:44:15;97645.34;;;14.15;55.21
49973;BME280;65693;49.798;10.968;2023-05-15T05:46:41;97650.66;;;14.15;55.15
49973;BME280;65693;49.798;10.968;2023-05-15T05:49:09;97653.16;;;14.17;55.14
49973;BME280;65693;49.798;10.968;2023-05-15T05:51:35;97649.69;;;14.16;54.96
49973;BME280;65693;49.798;10.968;2023-05-15T05:54:02;97647.72;;;14.18;54.96
49973;BME280;65693;49.798;10.968;2023-05-15T05:56:30;97653.06;;;14.18;54.95
49973;BME280;65693;49.798;10.968;2023-05-15T05:58:57;97647.00;;;14.16;55.07
49973;BME280;65693;49.798;10.968;2023-05-15T06:01:26;97652.34;;;14.16;54.70
49973;BME280;65693;49.798;10.968;2023-05-15T06:03:52;97653.16;;;14.17;54.88
49973;BME280;65693;49.798;10.968;2023-05-15T06:06:19;97649.53;;;14.18;54.95
49973;BME280;65693;49.798;10.968;2023-05-15T06:08:46;97650.50;;;14.17;54.70
49973;BME280;65693;49.798;10.968;2023-05-15T06:11:12;97652.19;;;14.18;54.65
49973;BME280;65693;49.798;10.968;2023-05-15T06:13:40;97654.72;;;14.19;54.80
49973;BME280;65693;49.798;10.968;2023-05-15T06:16:07;97644.19;;;14.18;54.59
49973;BME280;65693;49.798;10.968;2023-05-15T06:18:34;97641.41;;;14.19;54.66
49973;BME280;65693;49.798;10.968;2023-05-15T06:21:00;97641.41;;;14.19;54.60
49973;BME280;65693;49.798;10.968;2023-05-15T06:23:26;97647.56;;;14.20;54.79
49973;BME280;65693;49.798;10.968;2023-05-15T06:25:53;97650.94;;;14.22;54.61
49973;BME280;65693;49.798;10.968;2023-05-15T06:28:19;97645.75;;;14.20;54.71
49973;BME280;65693;49.798;10.968;2023-05-15T06:30:47;97647.31;;;14.23;54.61
49973;BME280;65693;49.798;10.968;2023-05-15T06:33:14;97648.16;;;14.23;54.63
49973;BME280;65693;49.798;10.968;2023-05-15T06:35:40;97648.03;;;14.25;54.67
49973;BME280;65693;49.798;10.968;2023-05-15T06:38:06;97642.81;;;14.23;54.53
49973;BME280;65693;49.798;10.968;2023-05-15T06:40:33;97641.84;;;14.25;54.62
49973;BME280;65693;49.798;10.968;2023-05-15T06:43:00;97647.03;;;14.26;54.48
49973;BME280;65693;49.798;10.968;2023-05-15T06:45:26;97642.53;;;14.27;54.73
49973;BME280;65693;49.798;10.968;2023-05-15T06:47:54;97644.50;;;14.25;54.59
49973;BME280;65693;49.798;10.968;2023-05-15T06:50:21;97647.88;;;14.27;54.52
49973;BME280;65693;49.798;10.968;2023-05-15T06:52:47;97643.41;;;14.27;54.69
49973;BME280;65693;49.798;10.968;2023-05-15T06:55:13;97638.06;;;14.27;54.69
49973;BME280;65693;49.798;10.968;2023-05-15T06:57:40;97634.41;;;14.28;54.70
49973;BME280;65693;49.798;10.968;2023-05-15T07:00:07;97636.22;;;14.28;54.69
49973;BME280;65693;49.798;10.968;2023-05-15T07:02:34;97644.22;;;14.28;54.57
49973;BME280;65693;49.798;10.968;2023-05-15T07:05:02;97646.91;;;14.28;54.57
49973;BME280;65693;49.798;10.968;2023-05-15T07:07:28;97645.91;;;14.29;54.71
49973;BME280;65693;49.798;10.968;2023-05-15T07:09:55;97638.91;;;14.28;54.65
49973;BME280;65693;49.798;10.968;2023-05-15T07:12:21;97641.44;;;14.29;54.70
49973;BME280;65693;49.798;10.968;2023-05-15T07:14:48;97640.56;;;14.29;54.63
49973;BME280;65693;49.798;10.968;2023-05-15T07:17:14;97643.41;;;14.27;54.62
49973;BME280;65693;49.798;10.968;2023-05-15T07:19:41;97647.75;;;14.28;54.65
49973;BME280;65693;49.798;10.968;2023-05-15T07:22:08;97636.94;;;14.30;54.64
49973;BME280;65693;49.798;10.968;2023-05-15T07:24:35;97640.56;;;14.29;54.65
49973;BME280;65693;49.798;10.968;2023-05-15T07:27:02;97642.41;;;14.28;54.67
49973;BME280;65693;49.798;10.968;2023-05-15T07:29:29;97642.53;;;14.27;54.90
49973;BME280;65693;49.798;10.968;2023-05-15T07:31:55;97639.88;;;14.27;54.92
49973;BME280;65693;49.798;10.968;2023-05-15T07:34:22;97638.91;;;14.28;54.71
49973;BME280;65693;49.798;10.968;2023-05-15T07:36:48;97637.22;;;14.27;54.81
49973;BME280;65693;49.798;10.968;2023-05-15T07:39:16;97634.41;;;14.28;54.70
49973;BME280;65693;49.798;10.968;2023-05-15T07:41:42;97637.09;;;14.28;54.83
49973;BME280;65693;49.798;10.968;2023-05-15T07:44:11;97626.56;;;14.27;54.84
49973;BME280;65693;49.798;10.968;2023-05-15T07:46:37;97626.44;;;14.28;54.70
49973;BME280;65693;49.798;10.968;2023-05-15T07:49:03;97628.22;;;14.28;54.78
49973;BME280;65693;49.798;10.968;2023-05-15T07:51:30;97629.09;;;14.28;54.73
49973;BME280;65693;49.798;10.968;2023-05-15T07:53:56;97624.47;;;14.30;54.57
49973;BME280;65693;49.798;10.968;2023-05-15T07:56:24;97624.34;;;14.32;54.64
49973;BME280;65693;49.798;10.968;2023-05-15T07:58:51;97620.94;;;14.30;54.52
49973;BME280;65693;49.798;10.968;2023-05-15T08:01:18;97626.16;;;14.31;54.48
49973;BME280;65693;49.798;10.968;2023-05-15T08:03:44;97623.34;;;14.33;54.70
49973;BME280;65693;49.798;10.968;2023-05-15T08:06:10;97623.22;;;14.34;54.64
49973;BME280;65693;49.798;10.968;2023-05-15T08:08:37;97622.38;;;14.34;54.60
49973;BME280;65693;49.798;10.968;2023-05-15T08:11:03;97618.72;;;14.35;54.49
49973;BME280;65693;49.798;10.968;2023-05-15T08:13:31;97621.94;;;14.39;54.67
49973;BME280;65693;49.798;10.968;2023-05-15T08:15:57;97613.13;;;14.38;54.49
49973;BME280;65693;49.798;10.968;2023-05-15T08:18:24;97619.28;;;14.39;54.48
49973;BME280;65693;49.798;10.968;2023-05-15T08:20:50;97618.44;;;14.38;54.42
49973;BME280;65693;49.798;10.968;2023-05-15T08:23:17;97619.16;;;14.40;54.43
49973;BME280;65693;49.798;10.968;2023-05-15T08:25:43;97627.03;;;14.42;54.40
49973;BME280;65693;49.798;10.968;2023-05-15T08:28:10;97624.09;;;14.45;54.47
49973;BME280;65693;49.798;10.968;2023-05-15T08:30:38;97618.75;;;14.45;54.48
49973;BME280;65693;49.798;10.968;2023-05-15T08:33:04;97612.44;;;14.46;54.60
49973;BME280;65693;49.798;10.968;2023-05-15T08:35:31;97610.59;;;14.46;54.64
49973;BME280;65693;49.798;10.968;2023-05-15T08:37:57;97617.63;;;14.47;54.38
49973;BME280;65693;49.798;10.968;2023-05-15T08:40:24;97604.28;;;14.47;54.48
49973;BME280;65693;49.798;10.968;2023-05-15T08:42:52;97612.03;;;14.50;54.20
49973;BME280;65693;49.798;10.968;2023-05-15T08:45:20;97601.38;;;14.50;54.21
49973;BME280;65693;49.798;10.968;2023-05-15T08:47:47;97598.53;;;14.52;54.27
49973;BME280;65693;49.798;10.968;2023-05-15T08:50:15;97595.75;;;14.54;54.07
49973;BME280;65693;49.798;10.968;2023-05-15T08:52:43;97597.56;;;14.53;54.40
49973;BME280;65693;49.798;10.968;2023-05-15T08:55:11;97603.59;;;14.55;54.16
49973;BME280;65693;49.798;10.968;2023-05-15T08:57:39;97598.41;;;14.54;54.41
49973;BME280;65693;49.798;10.968;2023-05-15T09:00:07;97595.75;;;14.54;54.37
49973;BME280;65693;49.798;10.968;2023-05-15T09:02:34;97587.47;;;14.57;54.25
49973;BME280;65693;49.798;10.968;2023-05-15T09:05:02;97592.81;;;14.57;54.42
49973;BME280;65693;49.798;10.968;2023-05-15T09:07:29;97589.03;;;14.59;54.23
49973;BME280;65693;49.798;10.968;2023-05-15T09:09:56;97590.72;;;14.60;54.21
49973;BME280;65693;49.798;10.968;2023-05-15T09:12:23;97588.75;;;14.62;54.30
49973;BME280;65693;49.798;10.968;2023-05-15T09:14:50;97589.56;;;14.63;54.23
49973;BME280;65693;49.798;10.968;2023-05-15T09:17:17;97585.91;;;14.64;54.10
49973;BME280;65693;49.798;10.968;2023-05-15T09:19:43;97584.97;;;14.65;54.24
49973;BME280;65693;49.798;10.968;2023-05-15T09:22:15;97579.47;;;14.67;54.44
49973;BME280;65693;49.798;10.968;2023-05-15T09:24:45;97581.16;;;14.68;54.29
49973;BME280;65693;49.798;10.968;2023-05-15T09:27:13;97590.84;;;14.69;54.25
49973;BME280;65693;49.798;10.968;2023-05-15T09:29:39;97588.88;;;14.71;54.23
49973;BME280;65693;49.798;10.968;2023-05-15T09:32:07;97581.72;;;14.71;54.30
49973;BME280;65693;49.798;10.968;2023-05-15T09:34:35;97578.22;;;14.71;54.33
49973;BME280;65693;49.798;10.968;2023-05-15T09:37:04;97580.03;;;14.70;54.41
49973;BME280;65693;49.798;10.968;2023-05-15T09:39:32;97575.53;;;14.71;54.39
49973;BME280;65693;49.798;10.968;2023-05-15T09:42:07;97577.09;;;14.73;54.22
49973;BME280;65693;49.798;10.968;2023-05-15T09:44:34;97581.44;;;14.74;54.20
49973;BME280;65693;49.798;10.968;2023-05-15T09:47:01;97574.31;;;14.75;54.30
49973;BME280;65693;49.798;10.968;2023-05-15T09:49:30;97575.97;;;14.76;54.31
49973;BME280;65693;49.798;10.968;2023-05-15T09:51:57;97584.81;;;14.76;54.41
49973;BME280;65693;49.798;10.968;2023-05-15T09:54:25;97582.84;;;14.78;54.29
49973;BME280;65693;49.798;10.968;2023-05-15T09:56:55;97575.53;;;14.80;54.08
49973;BME280;65693;49.798;10.968;2023-05-15T09:59:32;97569.38;;;14.80;54.21
49973;BME280;65693;49.798;10.968;2023-05-15T10:01:58;97571.06;;;14.81;54.31
49973;BME280;65693;49.798;10.968;2023-05-15T10:04:24;97571.91;;;14.82;54.24
49973;BME280;65693;49.798;10.968;2023-05-15T10:06:51;97564.75;;;14.82;54.09
49973;BME280;65693;49.798;10.968;2023-05-15T10:09:17;97566.28;;;14.85;54.08
49973;BME280;65693;49.798;10.968;2023-05-15T10:11:49;97558.28;;;14.85;54.06
49973;BME280;65693;49.798;10.968;2023-05-15T10:14:18;97562.78;;;14.84;54.16
49973;BME280;65693;49.798;10.968;2023-05-15T10:16:47;97563.63;;;14.85;54.13
49973;BME280;65693;49.798;10.968;2023-05-15T10:19:18;97557.31;;;14.86;54.05
49973;BME280;65693;49.798;10.968;2023-05-15T10:21:48;97561.78;;;14.85;54.11
49973;BME280;65693;49.798;10.968;2023-05-15T10:24:18;97562.63;;;14.86;54.39
49973;BME280;65693;49.798;10.968;2023-05-15T10:26:46;97548.31;;;14.87;54.14
49973;BME280;65693;49.798;10.968;2023-05-15T10:29:17;97550.00;;;14.88;54.07
49973;BME280;65693;49.798;10.968;2023-05-15T10:31:45;97551.69;;;14.89;54.10
49973;BME280;65693;49.798;10.968;2023-05-15T10:34:13;97549.00;;;14.89;54.04
49973;BME280;65693;49.798;10.968;2023-05-15T10:36:41;97532.88;;;14.90;54.16
49973;BME280;65693;49.798;10.968;2023-05-15T10:39:08;97528.53;;;14.89;54.24
49973;BME280;65693;49.798;10.968;2023-05-15T10:41:36;97537.22;;;14.91;54.08
49973;BME280;65693;49.798;10.968;2023-05-15T10:44:03;97534.28;;;14.94;54.05
49973;BME280;65693;49.798;10.968;2023-05-15T10:46:33;97528.06;;;14.94;54.08
49973;BME280;65693;49.798;10.968;2023-05-15T10:49:00;97526.84;;;14.98;54.12
49973;BME280;65693;49.798;10.968;2023-05-15T10:51:28;97530.44;;;14.97;54.12
49973;BME280;65693;49.798;10.968;2023-05-15T10:53:55;97539.19;;;14.99;54.10
49973;BME280;65693;49.798;10.968;2023-05-15T10:56:25;97530.31;;;14.99;54.10
49973;BME280;65693;49.798;10.968;2023-05-15T10:58:54;97528.34;;;15.01;54.33
49973;BME280;65693;49.798;10.968;2023-05-15T11:01:25;97527.53;;;15.00;53.97
49973;BME280;65693;49.798;10.968;2023-05-15T11:04:05;97525.69;;;15.01;54.16
49973;BME280;65693;49.798;10.968;2023-05-15T11:06:32;97525.59;;;15.02;54.18
49973;BME280;65693;49.798;10.968;2023-05-15T11:09:35;97521.06;;;15.03;54.09
49973;BME280;65693;49.798;10.968;2023-05-15T11:12:03;97527.25;;;15.03;54.23
49973;BME280;65693;49.798;10.968;2023-05-15T11:14:31;97524.44;;;15.05;54.07
49973;BME280;65693;49.798;10.968;2023-05-15T11:16:59;97524.44;;;15.05;54.13
49973;BME280;65693;49.798;10.968;2023-05-15T11:19:34;97522.63;;;15.05;54.03
49973;BME280;65693;49.798;10.968;2023-05-15T11:22:02;97517.97;;;15.07;54.04
49973;BME280;65693;49.798;10.968;2023-05-15T11:24:47;97516.28;;;15.06;54.24
49973;BME280;65693;49.798;10.968;2023-05-15T11:27:16;97517.97;;;15.07;54.12
49973;BME280;65693;49.798;10.968;2023-05-15T11:30:04;97503.66;;;15.08;54.09
49973;BME280;65693;49.798;10.968;2023-05-15T11:32:30;97505.19;;;15.11;53.93
49973;BME280;65693;49.798;10.968;2023-05-15T11:35:00;97505.88;;;15.13;54.12
49973;BME280;65693;49.798;10.968;2023-05-15T11:37:28;97512.91;;;15.14;53.99
49973;BME280;65693;49.798;10.968;2023-05-15T11:39:55;97507.44;;;15.16;53.98
49973;BME280;65693;49.798;10.968;2023-05-15T11:42:21;97510.13;;;15.16;54.00
49973;BME280;65693;49.798;10.968;2023-05-15T11:44:47;97505.47;;;15.18;53.96
49973;BME280;65693;49.798;10.968;2023-05-15T11:47:14;97504.47;;;15.19;53.96
49973;BME280;65693;49.798;10.968;2023-05-15T11:49:41;97503.50;;;15.20;53.92
49973;BME280;65693;49.798;10.968;2023-05-15T11:52:09;97505.31;;;15.19;53.86
49973;BME280;65693;49.798;10.968;2023-05-15T11:54:36;97499.13;;;15.19;53.94
49973;BME280;65693;49.798;10.968;2023-05-15T11:57:06;97511.50;;;15.20;53.95
49973;BME280;65693;49.798;10.968;2023-05-15T11:59:32;97517.66;;;15.20;54.13
49973;BME280;65693;49.798;10.968;2023-05-15T12:01:59;97509.81;;;15.19;54.04
49973;BME280;65693;49.798;10.968;2023-05-15T12:04:25;97541.84;;;15.19;54.10
49973;BME280;65693;49.798;10.968;2023-05-15T12:06:53;97532.84;;;15.20;54.04
49973;BME280;65693;49.798;10.968;2023-05-15T12:09:20;97530.19;;;15.20;53.97
49973;BME280;65693;49.798;10.968;2023-05-15T12:11:51;97535.53;;;15.20;53.44
49973;BME280;65693;49.798;10.968;2023-05-15T12:14:25;97534.53;;;15.21;53.55
49973;BME280;65693;49.798;10.968;2023-05-15T12:16:51;97536.22;;;15.22;53.72
49973;BME280;65693;49.798;10.968;2023-05-15T12:19:18;97543.53;;;15.20;53.75
49973;BME280;65693;49.798;10.968;2023-05-15T12:21:45;97546.19;;;15.20;53.63
49973;BME280;65693;49.798;10.968;2023-05-15T12:24:11;97541.69;;;15.20;53.69
49973;BME280;65693;49.798;10.968;2023-05-15T12:26:39;97540.84;;;15.20;53.60
49973;BME280;65693;49.798;10.968;2023-05-15T12:29:06;97538.03;;;15.21;53.69
49973;BME280;65693;49.798;10.968;2023-05-15T12:31:33;97540.84;;;15.20;53.87
49973;BME280;65693;49.798;10.968;2023-05-15T12:34:00;97538.19;;;15.20;53.82
49973;BME280;65693;49.798;10.968;2023-05-15T12:36:27;97531.00;;;15.20;53.70
49973;BME280;65693;49.798;10.968;2023-05-15T12:38:55;97527.50;;;15.20;53.75
49973;BME280;65693;49.798;10.968;2023-05-15T12:41:25;97532.69;;;15.21;53.89
49973;BME280;65693;49.798;10.968;2023-05-15T12:43:53;97531.00;;;15.20;53.92
49973;BME280;65693;49.798;10.968;2023-05-15T12:46:21;97528.34;;;15.20;53.89
49973;BME280;65693;49.798;10.968;2023-05-15T12:48:47;97531.00;;;15.20;53.89
49973;BME280;65693;49.798;10.968;2023-05-15T12:51:15;97530.88;;;15.22;53.94
49973;BME280;65693;49.798;10.968;2023-05-15T12:53:44;97528.06;;;15.24;53.87